createdAt,value
2017-01-08T00:04:40.722Z,-68
2017-01-08T00:09:37.070Z,-67
2017-01-08T00:14:33.497Z,-68
2017-01-08T00:19:29.930Z,-68
2017-01-08T00:24:26.244Z,-71
2017-01-08T00:29:22.462Z,-67
2017-01-08T00:34:19.502Z,-69
2017-01-08T00:39:17.113Z,-68
2017-01-08T00:44:13.929Z,-67
2017-01-08T00:49:10.447Z,-68
2017-01-08T00:54:06.996Z,-70
2017-01-08T00:59:05.785Z,-67
2017-01-08T01:04:01.702Z,-67
2017-01-08T01:08:58.141Z,-66
2017-01-08T01:13:54.590Z,-68
2017-01-08T01:18:50.905Z,-69
2017-01-08T01:23:47.366Z,-67
2017-01-08T01:28:43.666Z,-68
2017-01-08T01:33:40.283Z,-67
2017-01-08T01:38:36.985Z,-69
2017-01-08T01:43:34.102Z,-67
2017-01-08T01:48:30.501Z,-68
2017-01-08T01:53:26.691Z,-68
2017-01-08T01:58:23.883Z,-67
2017-01-08T02:03:20.478Z,-67
2017-01-08T02:08:16.598Z,-69
2017-01-08T02:13:13.169Z,-68
2017-01-08T02:18:09.382Z,-67
2017-01-08T02:23:05.860Z,-68
2017-01-08T02:28:02.783Z,-65
2017-01-08T02:32:59.123Z,-67
2017-01-08T02:37:55.839Z,-66
2017-01-08T02:42:53.159Z,-66
2017-01-08T02:47:50.151Z,-67
2017-01-08T02:52:46.734Z,-68
2017-01-08T02:57:42.775Z,-69
2017-01-08T03:02:39.411Z,-68
2017-01-08T03:07:36.688Z,-69
2017-01-08T03:12:32.952Z,-67
2017-01-08T03:17:29.243Z,-68
2017-01-08T03:22:25.867Z,-67
2017-01-08T03:27:22.145Z,-67
2017-01-08T03:32:18.423Z,-69
2017-01-08T03:37:14.723Z,-68
2017-01-08T03:42:11.114Z,-67
2017-01-08T03:47:07.602Z,-67
2017-01-08T03:52:03.888Z,-66
2017-01-08T03:57:00.359Z,-67
2017-01-08T04:01:56.902Z,-67
2017-01-08T04:06:53.320Z,-67
2017-01-08T04:11:49.797Z,-67
2017-01-08T04:16:46.257Z,-67
2017-01-08T04:21:42.757Z,-68
2017-01-08T04:26:39.245Z,-67
2017-01-08T04:31:35.696Z,-67
2017-01-08T04:36:32.054Z,-67
2017-01-08T04:41:28.376Z,-67
2017-01-08T04:46:24.357Z,-66
2017-01-08T04:51:20.775Z,-67
2017-01-08T04:56:17.099Z,-67
2017-01-08T05:01:13.356Z,-67
2017-01-08T05:06:09.716Z,-67
2017-01-08T05:11:06.095Z,-67
2017-01-08T05:16:02.483Z,-67
2017-01-08T05:20:58.935Z,-67
2017-01-08T05:25:55.277Z,-67
2017-01-08T05:30:51.702Z,-66
2017-01-08T05:35:48.088Z,-67
2017-01-08T05:40:45.188Z,-67
2017-01-08T05:45:41.524Z,-67
2017-01-08T05:50:37.911Z,-66
2017-01-08T05:55:34.201Z,-67
2017-01-08T06:00:31.278Z,-67
2017-01-08T06:05:27.780Z,-67
2017-01-08T06:10:24.127Z,-66
2017-01-08T06:15:20.411Z,-66
2017-01-08T06:20:17.013Z,-67
2017-01-08T06:25:13.773Z,-67
2017-01-08T06:30:11.053Z,-67
2017-01-08T06:35:07.364Z,-66
2017-01-08T06:40:03.759Z,-66
2017-01-08T06:45:00.155Z,-65
2017-01-08T06:49:56.191Z,-66
2017-01-08T06:54:53.259Z,-66
2017-01-08T06:59:49.706Z,-66
2017-01-08T07:04:45.964Z,-66
2017-01-08T07:09:42.176Z,-64
2017-01-08T07:14:38.549Z,-68
2017-01-08T07:19:35.025Z,-66
2017-01-08T07:24:31.486Z,-66
2017-01-08T07:29:27.866Z,-67
2017-01-08T07:34:24.767Z,-68
2017-01-08T07:39:20.957Z,-67
2017-01-08T07:44:17.255Z,-67
2017-01-08T07:49:13.579Z,-68
2017-01-08T07:54:10.534Z,-66
2017-01-08T07:59:06.948Z,-65
2017-01-08T08:04:03.356Z,-66
2017-01-08T08:09:00.639Z,-67
2017-01-08T08:13:56.940Z,-67
2017-01-08T08:18:53.662Z,-69
2017-01-08T08:23:49.960Z,-66
2017-01-08T08:28:46.392Z,-67
2017-01-08T08:33:42.630Z,-65
2017-01-08T08:38:39.122Z,-65
2017-01-08T08:43:35.664Z,-65
2017-01-08T08:48:31.952Z,-65
2017-01-08T08:53:28.582Z,-65
2017-01-08T08:58:24.827Z,-67
2017-01-08T09:03:22.024Z,-65
2017-01-08T09:08:18.632Z,-65
2017-01-08T09:13:14.985Z,-66
2017-01-08T09:18:11.722Z,-66
2017-01-08T09:23:08.245Z,-65
2017-01-08T09:28:04.274Z,-66
2017-01-08T09:33:00.768Z,-66
2017-01-08T09:37:57.162Z,-65
2017-01-08T09:42:54.181Z,-65
2017-01-08T09:47:50.470Z,-65
2017-01-08T09:52:47.194Z,-65
2017-01-08T09:57:43.569Z,-66
2017-01-08T10:02:39.759Z,-65
2017-01-08T10:07:36.475Z,-67
2017-01-08T10:12:32.775Z,-64
2017-01-08T10:17:29.393Z,-67
2017-01-08T10:22:25.795Z,-65
2017-01-08T10:27:22.192Z,-66
2017-01-08T10:32:18.621Z,-66
2017-01-08T10:37:15.611Z,-65
2017-01-08T10:42:11.946Z,-65
2017-01-08T10:47:08.387Z,-64
2017-01-08T10:52:05.451Z,-64
2017-01-08T10:57:01.730Z,-64
2017-01-08T11:01:57.655Z,-64
2017-01-08T11:06:54.084Z,-66
2017-01-08T11:11:50.468Z,-65
2017-01-08T11:16:47.038Z,-64
2017-01-08T11:21:43.685Z,-66
2017-01-08T11:26:40.113Z,-65
2017-01-08T11:31:38.718Z,-70
2017-01-08T11:36:34.571Z,-65
2017-01-08T11:41:31.177Z,-65
2017-01-08T11:46:27.855Z,-65
2017-01-08T11:51:24.237Z,-65
2017-01-08T11:56:21.385Z,-67
2017-01-08T12:01:17.702Z,-66
2017-01-08T12:06:13.994Z,-70
2017-01-08T12:11:10.997Z,-70
2017-01-08T12:16:07.383Z,-68
2017-01-08T12:21:03.575Z,-64
2017-01-08T12:26:00.101Z,-63
2017-01-08T12:30:56.908Z,-63
2017-01-08T12:35:53.325Z,-64
2017-01-08T12:40:50.006Z,-66
2017-01-08T12:45:46.393Z,-73
2017-01-08T12:50:43.195Z,-64
2017-01-08T12:55:40.987Z,-64
2017-01-08T13:00:37.101Z,-62
2017-01-08T13:05:33.663Z,-62
2017-01-08T13:10:29.957Z,-65
2017-01-08T13:15:26.287Z,-66
2017-01-08T13:20:22.244Z,-66
2017-01-08T13:25:19.094Z,-66
2017-01-08T13:30:15.653Z,-65
2017-01-08T13:35:12.009Z,-65
2017-01-08T13:40:08.326Z,-66
2017-01-08T13:45:04.676Z,-65
2017-01-08T13:50:01.684Z,-67
2017-01-08T13:54:58.044Z,-66
2017-01-08T13:59:54.420Z,-67
2017-01-08T14:04:50.820Z,-69
2017-01-08T14:09:47.282Z,-68
2017-01-08T14:14:43.587Z,-66
2017-01-08T14:19:40.139Z,-67
2017-01-08T14:24:36.511Z,-69
2017-01-08T14:29:32.753Z,-69
2017-01-08T14:34:29.046Z,-68
2017-01-08T14:39:26.438Z,-68
2017-01-08T14:44:23.152Z,-72
2017-01-08T14:49:20.857Z,-74
2017-01-08T14:54:16.829Z,-74
2017-01-08T14:59:14.500Z,-73
2017-01-08T15:04:10.495Z,-71
2017-01-08T15:09:07.034Z,-69
2017-01-08T15:14:03.274Z,-70
2017-01-08T15:18:59.594Z,-70
2017-01-08T15:23:56.010Z,-68
2017-01-08T15:28:52.795Z,-68
2017-01-08T15:33:49.688Z,-75
2017-01-08T15:38:46.521Z,-68
2017-01-08T15:43:42.799Z,-80
2017-01-08T15:48:39.171Z,-77
2017-01-08T15:53:35.686Z,-75
2017-01-08T15:58:32.008Z,-80
2017-01-08T16:03:29.856Z,-73
2017-01-08T16:08:26.370Z,-76
2017-01-08T16:13:22.796Z,-78
2017-01-08T16:18:19.164Z,-80
2017-01-08T16:23:16.187Z,-70
2017-01-08T16:28:12.490Z,-72
2017-01-08T16:33:09.011Z,-72
2017-01-08T16:38:05.251Z,-79
2017-01-08T16:43:01.671Z,-72
2017-01-08T16:47:58.083Z,-72
2017-01-08T16:52:54.441Z,-75
2017-01-08T16:57:51.030Z,-72
2017-01-08T17:02:47.425Z,-69
2017-01-08T17:07:43.687Z,-71
2017-01-08T17:12:40.084Z,-76
2017-01-08T17:17:36.481Z,-71
2017-01-08T17:22:32.890Z,-71
2017-01-08T17:27:29.249Z,-75
2017-01-08T17:32:25.601Z,-69
2017-01-08T17:37:21.884Z,-70
2017-01-08T17:42:18.305Z,-77
2017-01-08T17:47:21.249Z,-75
2017-01-08T17:52:17.229Z,-77
2017-01-08T17:57:13.784Z,-74
2017-01-08T18:02:10.977Z,-70
2017-01-08T18:07:07.309Z,-70
2017-01-08T18:12:04.595Z,-71
2017-01-08T18:17:03.181Z,-74
2017-01-08T18:21:58.987Z,-78
2017-01-08T18:26:55.328Z,-71
2017-01-08T18:31:54.583Z,-71
2017-01-08T18:36:50.282Z,-80
2017-01-08T18:41:46.687Z,-69
2017-01-08T18:46:43.086Z,-69
2017-01-08T18:51:39.505Z,-69
2017-01-08T18:56:36.139Z,-68
2017-01-08T19:01:32.287Z,-70
2017-01-08T19:06:28.603Z,-69
2017-01-08T19:11:27.554Z,-69
2017-01-08T19:16:23.488Z,-78
2017-01-08T19:21:22.179Z,-71
2017-01-08T19:26:17.959Z,-72
2017-01-08T19:31:14.321Z,-72
2017-01-08T19:36:11.428Z,-70
2017-01-08T19:41:07.964Z,-74
2017-01-08T19:46:04.380Z,-72
2017-01-08T19:51:01.802Z,-72
2017-01-08T19:55:58.195Z,-73
2017-01-08T20:00:54.602Z,-69
2017-01-08T20:05:50.918Z,-74
2017-01-08T20:10:49.819Z,-68
2017-01-08T20:15:45.682Z,-68
2017-01-08T20:20:41.899Z,-71
2017-01-08T20:25:40.538Z,-71
2017-01-08T20:35:59.715Z,-72
2017-01-08T20:40:56.060Z,-75
2017-01-08T20:45:53.911Z,-77
2017-01-08T20:50:49.980Z,-76
2017-01-08T20:55:46.749Z,-71
2017-01-08T21:00:42.725Z,-74
2017-01-08T21:05:39.327Z,-72
2017-01-08T21:10:35.595Z,-75
2017-01-08T21:15:32.060Z,-78
2017-01-08T21:20:28.408Z,-75
2017-01-08T21:25:24.727Z,-79
2017-01-08T21:30:21.192Z,-72
2017-01-08T21:40:27.029Z,-79
2017-01-08T21:45:24.481Z,-83
2017-01-08T21:50:20.516Z,-81
2017-01-08T21:55:17.348Z,-80
2017-01-08T22:00:14.028Z,-82
2017-01-08T22:05:11.588Z,-82
2017-01-08T22:10:08.237Z,-80
2017-01-08T22:15:04.560Z,-81
2017-01-08T22:20:00.850Z,-73
2017-01-08T22:24:59.100Z,-73
2017-01-08T22:29:55.368Z,-82
2017-01-08T22:34:51.718Z,-79
2017-01-08T22:39:48.319Z,-79
2017-01-08T22:44:44.694Z,-74
2017-01-08T22:49:41.884Z,-74
2017-01-08T22:54:37.782Z,-73
2017-01-08T22:59:34.382Z,-76
2017-01-08T23:04:30.663Z,-79
2017-01-08T23:09:26.979Z,-77
2017-01-08T23:14:24.280Z,-73
2017-01-08T23:19:20.720Z,-73
2017-01-08T23:24:17.162Z,-73
2017-01-08T23:29:13.582Z,-71
2017-01-08T23:34:09.739Z,-72
2017-01-08T23:39:06.057Z,-74
2017-01-08T23:44:02.318Z,-75
2017-01-08T23:48:59.699Z,-76
2017-01-08T23:53:55.939Z,-75
2017-01-08T23:58:52.337Z,-77
